Time;durP1;ratioP1;P1;durP2;ratioP2;P2;SDS_P1;SDS_P2;PMS_P1;PMS_P2;Temp;Humidity;BMP_temperature;BMP_pressure;BME280_temperature;BME280_humidity;BME280_pressure;Samples;Min_cycle;Max_cycle;Signal;HPM_P1;HPM_P2
2022/10/14 00:01:54;;;;;;;4.57;3.75;;;;;;;14.79;99.54;95819.81;4998977;28;20227;-78
2022/10/14 00:04:21;;;;;;;4.15;3.60;;;;;;;14.82;99.36;95823.78;4999871;28;20213;-78
2022/10/14 00:06:47;;;;;;;5.25;4.05;;;;;;;14.84;100.00;95816.63;5000115;28;20203;-78
2022/10/14 00:09:14;;;;;;;6.03;3.97;;;;;;;14.80;100.00;95811.06;4999503;28;20291;-78
2022/10/14 00:11:40;;;;;;;6.65;3.50;;;;;;;14.81;99.74;95823.03;5000588;28;20250;-78
2022/10/14 00:14:12;;;;;;;3.90;3.50;;;;;;;14.82;99.52;95808.22;4999799;28;20231;-78
2022/10/14 00:16:40;;;;;;;5.85;3.72;;;;;;;14.80;99.83;95808.47;4996126;28;20675;-79
2022/10/14 00:19:07;;;;;;;3.85;3.45;;;;;;;14.80;100.00;95821.41;4999643;28;20226;-78
2022/10/14 00:21:35;;;;;;;5.30;3.67;;;;;;;14.81;100.00;95815.25;4999511;28;20219;-78
2022/10/14 00:24:02;;;;;;;3.78;3.47;;;;;;;14.85;99.33;95819.00;4999726;28;20211;-78
2022/10/14 00:26:30;;;;;;;5.07;3.70;;;;;;;14.88;99.50;95817.03;4999504;28;20199;-78
2022/10/14 00:28:58;;;;;;;4.35;3.70;;;;;;;14.88;99.31;95822.22;4998875;28;20203;-77
2022/10/14 00:31:26;;;;;;;4.00;3.60;;;;;;;14.89;99.21;95823.81;4998843;28;20219;-78
2022/10/14 00:33:53;;;;;;;5.43;3.40;;;;;;;14.86;98.88;95819.81;4998440;28;20353;-78
2022/10/14 00:36:21;;;;;;;4.55;3.38;;;;;;;14.83;99.39;95820.19;4998248;28;20210;-77
2022/10/14 00:38:48;;;;;;;4.75;3.47;;;;;;;14.82;99.47;95816.00;4997728;28;20286;-79
2022/10/14 00:41:17;;;;;;;3.50;3.20;;;;;;;14.86;99.54;95822.41;4997857;28;20227;-78
2022/10/14 00:43:56;;;;;;;5.97;3.58;;;;;;;14.88;98.67;95815.22;4997990;28;20196;-78
2022/10/14 00:46:23;;;;;;;5.90;3.83;;;;;;;14.84;99.52;95814.03;4998675;28;20214;-78
2022/10/14 00:48:51;;;;;;;4.18;3.65;;;;;;;14.80;99.56;95811.06;4998405;28;20199;-78
2022/10/14 00:51:18;;;;;;;3.92;3.50;;;;;;;14.81;99.60;95809.25;4998545;28;20223;-77
2022/10/14 00:53:46;;;;;;;3.72;3.42;;;;;;;14.82;99.41;95808.22;4998442;28;20214;-77
2022/10/14 00:56:15;;;;;;;6.32;3.70;;;;;;;14.82;99.98;95813.41;4997599;28;20204;-78
2022/10/14 00:58:44;;;;;;;3.95;3.55;;;;;;;14.83;99.96;95808.03;4998261;28;20223;-78
2022/10/14 01:01:11;;;;;;;5.68;3.42;;;;;;;14.85;100.00;95810.44;4998009;28;20227;-78
2022/10/14 01:03:37;;;;;;;5.80;3.50;;;;;;;14.83;100.00;95807.25;4998157;28;20213;-78
2022/10/14 01:06:16;;;;;;;3.72;3.28;;;;;;;14.76;100.00;95804.66;5001039;28;20203;-77
2022/10/14 01:08:48;;;;;;;5.63;2.97;;;;;;;14.71;99.41;95806.22;5000901;28;20199;-76
2022/10/14 01:11:22;;;;;;;3.95;2.90;;;;;;;14.75;99.66;95808.25;5001833;28;20227;-79
2022/10/14 01:13:58;;;;;;;5.20;2.95;;;;;;;14.76;98.77;95817.63;5002006;28;20200;-78
2022/10/14 01:16:36;;;;;;;3.83;2.78;;;;;;;14.75;98.76;95810.03;5002612;28;20207;-79
2022/10/14 01:19:16;;;;;;;4.07;3.33;;;;;;;14.72;98.04;95813.00;5002247;28;20235;-78
2022/10/14 01:21:47;;;;;;;3.33;2.50;;;;;;;14.68;97.54;95812.59;5001492;28;20231;-78
2022/10/14 01:24:35;;;;;;;2.58;1.98;;;;;;;14.54;97.67;95810.19;5001750;28;20211;-78
2022/10/14 01:27:17;;;;;;;2.70;2.20;;;;;;;14.43;98.33;95801.97;5001571;28;20230;-78
2022/10/14 01:30:16;;;;;;;4.53;1.80;;;;;;;14.38;99.38;95812.09;5000131;28;20207;-78
2022/10/14 01:32:55;;;;;;;2.92;2.10;;;;;;;14.36;99.83;95806.31;5001372;28;20227;-78
2022/10/14 01:35:32;;;;;;;2.38;1.75;;;;;;;14.31;100.00;95807.88;5001568;28;20204;-77
2022/10/14 01:38:03;;;;;;;4.10;2.25;;;;;;;14.25;100.00;95812.03;5001285;28;20279;-76
2022/10/14 01:40:37;;;;;;;2.88;2.05;;;;;;;14.31;100.00;95810.47;5001285;28;20203;-77
2022/10/14 01:43:05;;;;;;;1.80;1.67;;;;;;;14.36;100.00;95801.13;5001723;28;20219;-78
2022/10/14 01:45:36;;;;;;;2.20;1.60;;;;;;;14.29;100.00;95808.06;5002545;28;20207;-77
2022/10/14 01:48:04;;;;;;;3.88;1.83;;;;;;;14.23;100.00;95803.69;5001929;28;20199;-77
2022/10/14 01:50:34;;;;;;;4.40;1.80;;;;;;;14.15;100.00;95803.84;5001600;28;20206;-78
2022/10/14 01:53:04;;;;;;;1.80;1.58;;;;;;;14.07;100.00;95804.00;5002283;28;20223;-78
2022/10/14 01:55:36;;;;;;;2.00;1.80;;;;;;;14.03;100.00;95803.59;5001799;28;20207;-78
2022/10/14 01:58:04;;;;;;;1.60;1.50;;;;;;;14.03;100.00;95800.22;5001369;28;20238;-78
2022/10/14 02:00:30;;;;;;;4.03;1.85;;;;;;;14.01;100.00;95808.16;5001059;28;20206;-77
2022/10/14 02:02:58;;;;;;;3.55;2.03;;;;;;;13.99;100.00;95804.97;5000791;28;20242;-77
2022/10/14 02:05:31;;;;;;;2.50;1.73;;;;;;;14.06;100.00;95810.16;5000787;28;20204;-77
2022/10/14 02:08:09;;;;;;;2.13;1.80;;;;;;;14.05;100.00;95801.59;5000672;28;20208;-78
2022/10/14 02:10:47;;;;;;;1.70;1.60;;;;;;;14.01;100.00;95807.38;5000540;28;20203;-78
2022/10/14 02:13:29;;;;;;;2.35;1.67;;;;;;;14.03;100.00;95805.38;5000080;28;20690;-78
2022/10/14 02:16:06;;;;;;;2.17;1.98;;;;;;;14.11;100.00;95808.59;5000138;28;20219;-78
2022/10/14 02:18:40;;;;;;;3.55;1.80;;;;;;;14.11;100.00;95816.38;5000459;28;20231;-78
2022/10/14 02:21:12;;;;;;;3.10;1.60;;;;;;;14.13;100.00;95813.59;5000440;28;20219;-78
2022/10/14 02:23:44;;;;;;;2.00;1.70;;;;;;;14.13;100.00;95816.19;5000309;28;20214;-78
2022/10/14 02:26:12;;;;;;;2.47;2.03;;;;;;;14.13;100.00;95811.00;5001009;28;20711;-78
2022/10/14 02:28:42;;;;;;;2.55;1.80;;;;;;;14.23;100.00;95815.84;5002087;28;20671;-77
2022/10/14 02:31:13;;;;;;;1.85;1.50;;;;;;;14.21;100.00;95815.22;5000537;28;20223;-78
2022/10/14 02:33:42;;;;;;;2.28;1.83;;;;;;;14.26;100.00;95818.81;5002158;28;20671;-77
2022/10/14 02:36:12;;;;;;;1.80;1.70;;;;;;;14.25;100.00;95819.81;4999243;28;20204;-81
2022/10/14 02:38:40;;;;;;;2.22;1.80;;;;;;;14.23;100.00;95818.44;5000225;28;20219;-79
2022/10/14 02:41:12;;;;;;;2.15;1.88;;;;;;;14.21;100.00;95816.03;5001738;28;20227;-78
2022/10/14 02:43:39;;;;;;;3.50;2.00;;;;;;;14.23;100.00;95813.25;5002035;28;20701;-78
2022/10/14 02:46:06;;;;;;;2.33;1.88;;;;;;;14.27;100.00;95819.63;5002181;28;20219;-78
2022/10/14 02:48:32;;;;;;;2.25;2.00;;;;;;;14.27;100.00;95819.63;5002209;28;20203;-78
2022/10/14 02:51:00;;;;;;;2.03;1.80;;;;;;;14.28;100.00;95818.63;5000994;28;20222;-79
2022/10/14 02:53:27;;;;;;;1.98;1.88;;;;;;;14.24;100.00;95820.03;5002606;28;20216;-78
2022/10/14 02:55:53;;;;;;;2.13;1.92;;;;;;;14.26;100.00;95812.84;5002178;28;20248;-78
2022/10/14 02:58:20;;;;;;;3.97;2.10;;;;;;;14.29;100.00;95817.63;5001974;28;20592;-77
2022/10/14 03:00:48;;;;;;;2.38;1.95;;;;;;;14.26;100.00;95816.22;5001322;28;20203;-78
2022/10/14 03:03:15;;;;;;;2.28;2.00;;;;;;;14.22;100.00;95820.22;5001538;28;20200;-78
2022/10/14 03:05:43;;;;;;;2.08;1.90;;;;;;;14.23;100.00;95821.00;5001078;28;20210;-78
2022/10/14 03:08:11;;;;;;;2.20;2.00;;;;;;;14.22;100.00;95824.59;5001561;28;20242;-78
2022/10/14 03:10:37;;;;;;;3.85;2.00;;;;;;;14.27;100.00;95820.41;5000075;28;20224;-78
2022/10/14 03:13:04;;;;;;;2.25;1.92;;;;;;;14.29;100.00;95815.03;5001009;28;20231;-79
2022/10/14 03:15:30;;;;;;;3.05;2.10;;;;;;;14.32;100.00;95810.28;5001019;28;20215;-78
2022/10/14 03:17:56;;;;;;;2.70;1.70;;;;;;;14.36;100.00;95810.69;5001292;28;20211;-78
2022/10/14 03:20:23;;;;;;;2.17;2.00;;;;;;;14.30;100.00;95814.84;5000749;28;20219;-78
2022/10/14 03:22:50;;;;;;;4.20;2.20;;;;;;;14.30;100.00;95811.47;5001068;28;20215;-76
2022/10/14 03:25:18;;;;;;;2.20;2.00;;;;;;;14.29;100.00;95813.25;5000768;28;20206;-78
2022/10/14 03:27:44;;;;;;;2.50;2.10;;;;;;;14.31;100.00;95807.88;4999880;28;20275;-80
2022/10/14 03:30:11;;;;;;;4.15;2.60;;;;;;;14.25;100.00;95806.84;4999141;28;20199;-79
2022/10/14 03:32:38;;;;;;;3.83;2.40;;;;;;;14.25;100.00;95809.44;5000171;28;20230;-78
2022/10/14 03:35:05;;;;;;;2.42;2.22;;;;;;;14.27;100.00;95811.84;5000323;28;20207;-77
2022/10/14 03:37:31;;;;;;;2.53;2.33;;;;;;;14.28;100.00;95816.03;4999891;28;20207;-78
2022/10/14 03:39:58;;;;;;;2.50;2.30;;;;;;;14.28;100.00;95818.63;4998867;28;20266;-78
2022/10/14 03:42:26;;;;;;;2.67;2.47;;;;;;;14.31;100.00;95813.84;4999200;28;20227;-78
2022/10/14 03:44:52;;;;;;;3.45;2.30;;;;;;;14.27;100.00;95810.06;4999555;28;20207;-78
2022/10/14 03:47:19;;;;;;;4.10;2.60;;;;;;;14.31;100.00;95813.84;4998558;28;20202;-78
2022/10/14 03:49:45;;;;;;;2.55;2.35;;;;;;;14.32;100.00;95809.47;5000279;28;20207;-78
2022/10/14 03:52:11;;;;;;;3.55;2.35;;;;;;;14.35;100.00;95801.31;4999354;28;20223;-78
2022/10/14 03:54:38;;;;;;;2.72;2.42;;;;;;;14.36;100.00;95810.69;4999378;28;20211;-78
2022/10/14 03:57:04;;;;;;;2.83;2.47;;;;;;;14.40;100.00;95797.19;4999317;28;20207;-78
2022/10/14 03:59:32;;;;;;;3.15;2.30;;;;;;;14.43;100.00;95799.38;4999117;28;20215;-78
2022/10/14 04:01:59;;;;;;;3.53;2.50;;;;;;;14.43;100.00;95798.59;4997583;28;20211;-79
2022/10/14 04:04:25;;;;;;;2.70;2.38;;;;;;;14.44;100.00;95797.59;4998141;28;20214;-79
2022/10/14 04:06:52;;;;;;;4.93;2.58;;;;;;;14.42;100.00;95794.41;4999003;28;20203;-78
2022/10/14 04:09:18;;;;;;;2.90;2.53;;;;;;;14.42;100.00;95791.81;4997989;28;20221;-79
2022/10/14 04:11:44;;;;;;;2.53;2.28;;;;;;;14.45;100.00;95789.63;4996843;28;20227;-78
2022/10/14 04:14:11;;;;;;;4.53;2.67;;;;;;;14.48;100.00;95788.44;4998278;28;20226;-78
2022/10/14 04:16:39;;;;;;;3.85;2.70;;;;;;;14.46;100.00;95782.66;4997837;28;20211;-78
2022/10/14 04:19:05;;;;;;;2.45;2.13;;;;;;;14.40;100.00;95781.66;4998242;28;20234;-80
2022/10/14 04:21:32;;;;;;;2.80;2.50;;;;;;;14.43;100.00;95785.66;4999207;28;20219;-79
2022/10/14 04:23:58;;;;;;;2.28;2.05;;;;;;;14.42;100.00;95782.25;5000006;28;20195;-78
2022/10/14 04:26:25;;;;;;;2.75;2.30;;;;;;;14.45;99.35;95786.22;4999815;28;20290;-77
2022/10/14 04:28:51;;;;;;;4.63;2.17;;;;;;;14.41;99.89;95779.88;5000227;28;20532;-77
2022/10/14 04:31:18;;;;;;;2.45;2.25;;;;;;;14.36;100.00;95780.41;4998828;28;20223;-78
2022/10/14 04:33:46;;;;;;;5.93;2.42;;;;;;;14.38;99.91;95775.03;4998289;28;20209;-81
2022/10/14 04:36:12;;;;;;;2.60;2.40;;;;;;;14.40;99.72;95767.88;4997865;28;20196;-77
2022/10/14 04:38:38;;;;;;;2.95;2.40;;;;;;;14.44;99.41;95774.25;4998824;28;20203;-79
2022/10/14 04:41:05;;;;;;;3.83;2.80;;;;;;;14.42;99.25;95771.91;4991668;28;20448;-79
2022/10/14 04:43:32;;;;;;;4.53;2.83;;;;;;;14.37;100.00;95776.81;5006553;28;20207;-79
2022/10/14 04:45:59;;;;;;;3.03;2.33;;;;;;;14.40;99.61;95770.47;5002376;28;20206;-80
2022/10/14 04:48:25;;;;;;;4.55;2.30;;;;;;;14.40;99.34;95760.94;5003470;28;20278;-81
2022/10/14 04:50:53;;;;;;;3.33;2.55;;;;;;;14.43;99.14;95752.75;5003447;28;20196;-78
2022/10/14 04:53:20;;;;;;;5.30;2.47;;;;;;;14.43;99.25;95757.16;5004542;28;20591;-78
2022/10/14 04:55:48;;;;;;;2.72;2.50;;;;;;;14.40;99.27;95753.16;5002965;28;20203;-77
2022/10/14 04:58:15;;;;;;;2.92;2.35;;;;;;;14.37;98.96;95755.31;5007048;28;20199;-79
2022/10/14 05:00:42;;;;;;;3.72;2.58;;;;;;;14.37;98.79;95755.31;5002887;28;20227;-78
2022/10/14 05:03:11;;;;;;;2.72;2.40;;;;;;;14.35;98.50;95747.72;5001474;28;20211;-78
2022/10/14 05:05:37;;;;;;;3.08;2.50;;;;;;;14.36;98.94;95743.34;5019908;28;20203;-78
2022/10/14 05:08:05;;;;;;;2.95;2.70;;;;;;;14.37;98.83;95753.50;5005622;28;20203;-77
2022/10/14 05:10:32;;;;;;;2.50;2.30;;;;;;;14.41;98.21;95739.22;5008368;28;20203;-78
2022/10/14 05:12:59;;;;;;;2.60;2.40;;;;;;;14.37;98.78;95740.56;5013793;28;20335;-78
2022/10/14 05:15:25;;;;;;;2.65;2.38;;;;;;;14.33;98.35;95741.13;5012364;28;20214;-79
2022/10/14 05:17:52;;;;;;;2.85;2.55;;;;;;;14.37;98.22;95734.59;5009142;28;20227;-78
2022/10/14 05:20:18;;;;;;;3.60;2.80;;;;;;;14.37;98.90;95732.78;5011584;28;20229;-77
2022/10/14 05:22:48;;;;;;;3.42;2.45;;;;;;;14.41;98.48;95741.00;5005787;28;20707;-78
2022/10/14 05:25:16;;;;;;;2.72;2.53;;;;;;;14.44;98.76;95745.78;5009148;28;20231;-78
2022/10/14 05:27:42;;;;;;;2.70;2.50;;;;;;;14.42;98.32;95742.59;5010398;28;20206;-80
2022/10/14 05:30:10;;;;;;;3.00;2.70;;;;;;;14.38;98.13;95739.56;5015001;28;20207;-79
2022/10/14 05:32:36;;;;;;;4.97;2.72;;;;;;;14.41;98.27;95735.81;5012598;28;20245;-81
2022/10/14 05:35:03;;;;;;;3.92;2.50;;;;;;;14.42;99.24;95733.03;5006399;28;20207;-78
2022/10/14 05:37:30;;;;;;;3.53;2.65;;;;;;;14.39;99.08;95733.41;5008657;28;20679;-77
2022/10/14 05:39:56;;;;;;;5.53;3.50;;;;;;;14.37;100.00;95729.41;5008240;28;20715;-78
2022/10/14 05:42:24;;;;;;;4.10;3.13;;;;;;;14.37;100.00;95732.78;5011771;28;20286;-78
2022/10/14 05:44:51;;;;;;;2.60;2.40;;;;;;;14.39;99.55;95730.81;5011703;28;20206;-77
2022/10/14 05:47:17;;;;;;;3.50;2.60;;;;;;;14.43;99.36;95737.19;5011789;28;20214;-76
2022/10/14 05:49:44;;;;;;;2.75;2.50;;;;;;;14.43;98.90;95737.19;5006759;28;20201;-79
2022/10/14 05:52:10;;;;;;;3.50;3.03;;;;;;;14.42;98.74;95733.03;5013320;28;20225;-78
2022/10/14 05:54:37;;;;;;;7.78;6.13;;;;;;;14.38;98.62;95724.03;5014186;28;20206;-79
2022/10/14 05:57:03;;;;;;;3.07;2.83;;;;;;;14.34;98.58;95725.41;5002511;28;20207;-76
2022/10/14 05:59:33;;;;;;;3.00;2.70;;;;;;;14.31;99.47;95725.78;5007579;28;20243;-78
2022/10/14 06:02:02;;;;;;;3.72;2.50;;;;;;;14.34;99.66;95728.00;5012627;28;20227;-77
2022/10/14 06:04:29;;;;;;;3.80;2.60;;;;;;;14.37;99.21;95724.22;5016652;28;20206;-78
2022/10/14 06:06:55;;;;;;;3.83;2.90;;;;;;;14.42;98.61;95724.47;5007030;28;20200;-78
2022/10/14 06:09:22;;;;;;;5.57;2.60;;;;;;;14.41;98.20;95720.28;5019016;28;20614;-77
2022/10/14 06:11:48;;;;;;;2.78;2.58;;;;;;;14.42;98.27;95724.47;5018225;28;20226;-78
2022/10/14 06:14:15;;;;;;;3.30;2.65;;;;;;;14.42;98.13;95719.28;5005592;28;20226;-77
2022/10/14 06:16:43;;;;;;;3.75;2.63;;;;;;;14.39;98.09;95727.41;4999617;28;20219;-78
2022/10/14 06:19:09;;;;;;;2.92;2.58;;;;;;;14.40;97.98;95719.47;5004114;28;20204;-77
2022/10/14 06:21:36;;;;;;;3.95;2.50;;;;;;;14.42;98.28;95714.91;5010594;28;20234;-77
2022/10/14 06:24:05;;;;;;;2.85;2.47;;;;;;;14.45;98.15;95711.91;5013596;28;20206;-77
2022/10/14 06:26:35;;;;;;;5.07;2.50;;;;;;;14.48;97.53;95716.69;4995831;28;20288;-77
2022/10/14 06:29:02;;;;;;;6.55;2.53;;;;;;;14.50;97.58;95716.50;5009039;28;20210;-77
2022/10/14 06:31:29;;;;;;;3.88;2.45;;;;;;;14.47;96.94;95715.09;5011927;28;20223;-77
2022/10/14 06:33:59;;;;;;;2.50;2.30;;;;;;;14.46;97.31;95712.69;5004428;28;20214;-77
2022/10/14 06:36:26;;;;;;;2.47;2.28;;;;;;;14.43;97.86;95721.66;5014794;28;20233;-78
2022/10/14 06:38:52;;;;;;;3.80;2.40;;;;;;;14.48;98.08;95721.88;5010194;28;20202;-78
2022/10/14 06:41:19;;;;;;;3.72;2.72;;;;;;;14.52;97.74;95720.47;5008789;28;20309;-79
2022/10/14 06:43:45;;;;;;;3.72;2.63;;;;;;;14.54;97.45;95724.69;5009286;28;20255;-78
2022/10/14 06:46:11;;;;;;;5.55;4.82;;;;;;;14.53;97.76;95729.06;5008979;28;20823;-77
2022/10/14 06:48:38;;;;;;;7.75;6.43;;;;;;;14.58;97.84;95723.28;5001378;28;20211;-78
2022/10/14 06:51:06;;;;;;;7.18;5.93;;;;;;;14.63;97.95;95726.88;5007712;28;20192;-78
2022/10/14 06:53:34;;;;;;;3.70;3.40;;;;;;;14.69;97.01;95725.28;4995579;28;20590;-77
2022/10/14 06:56:02;;;;;;;3.72;2.45;;;;;;;14.70;96.30;95732.06;4998820;28;20206;-77
2022/10/14 06:58:29;;;;;;;3.17;2.45;;;;;;;14.67;96.44;95719.50;4997257;28;20239;-77
2022/10/14 07:00:55;;;;;;;2.40;2.20;;;;;;;14.66;96.14;95715.31;4998521;28;20724;-77
2022/10/14 07:03:22;;;;;;;3.08;2.30;;;;;;;14.74;95.57;95722.91;4997308;28;20207;-78
2022/10/14 07:05:51;;;;;;;2.88;2.38;;;;;;;14.78;95.11;95719.72;4999656;28;20223;-78
2022/10/14 07:08:19;;;;;;;2.67;2.30;;;;;;;14.97;94.65;95722.50;4981465;28;20208;-78
2022/10/14 07:10:46;;;;;;;2.60;2.40;;;;;;;15.36;93.74;95717.28;4979936;28;20206;-77
2022/10/14 07:13:13;;;;;;;2.90;2.55;;;;;;;15.81;91.04;95715.56;4987169;28;20207;-77
2022/10/14 07:15:42;;;;;;;3.88;3.10;;;;;;;16.69;85.77;95701.94;5000605;28;20589;-79
2022/10/14 07:18:08;;;;;;;3.70;2.30;;;;;;;17.31;82.75;95708.03;5000866;28;20237;-77
2022/10/14 07:20:35;;;;;;;2.80;2.20;;;;;;;17.57;78.28;95700.72;5000177;28;20779;-79
2022/10/14 07:23:01;;;;;;;4.47;1.95;;;;;;;17.99;77.32;95695.66;5001107;28;20223;-77
2022/10/14 07:25:29;;;;;;;3.53;2.20;;;;;;;17.92;75.68;95697.53;4999834;28;20208;-78
2022/10/14 07:27:56;;;;;;;2.90;1.90;;;;;;;18.01;74.88;95688.44;5003928;28;20203;-77
2022/10/14 07:30:22;;;;;;;4.13;1.88;;;;;;;18.04;75.36;95692.41;5001857;28;20202;-78
2022/10/14 07:32:49;;;;;;;2.75;1.80;;;;;;;18.35;74.49;95691.38;5003008;28;20216;-80
2022/10/14 07:35:16;;;;;;;2.25;1.60;;;;;;;18.18;72.81;95692.00;5003813;28;20214;-78
2022/10/14 07:37:42;;;;;;;1.85;1.58;;;;;;;17.92;74.34;95694.94;5002128;28;20200;-78
2022/10/14 07:40:10;;;;;;;3.03;1.70;;;;;;;17.80;74.21;95697.50;5001746;28;20226;-77
2022/10/14 07:42:38;;;;;;;2.55;1.95;;;;;;;18.54;72.26;95692.91;5002347;28;20231;-78
2022/10/14 07:45:06;;;;;;;3.35;1.77;;;;;;;19.18;70.55;95704.38;5001162;28;20204;-77
2022/10/14 07:47:32;;;;;;;3.58;1.60;;;;;;;19.13;66.42;95696.41;5001294;28;20203;-79
2022/10/14 07:49:59;;;;;;;4.10;2.40;;;;;;;19.09;68.40;95700.50;5000853;28;20196;-79
2022/10/14 07:52:26;;;;;;;1.95;1.65;;;;;;;18.69;68.27;95701.13;5000612;28;20310;-79
2022/10/14 07:54:52;;;;;;;2.33;1.75;;;;;;;18.45;69.97;95705.47;5000822;28;20203;-78
2022/10/14 07:57:22;;;;;;;1.80;1.70;;;;;;;19.02;69.09;95698.00;5002525;28;20203;-79
2022/10/14 07:59:51;;;;;;;2.83;1.63;;;;;;;19.50;67.12;95708.22;5002409;28;20270;-78
2022/10/14 08:02:18;;;;;;;4.22;1.70;;;;;;;19.63;67.23;95707.97;5002931;28;20220;-79
2022/10/14 08:04:44;;;;;;;3.25;1.60;;;;;;;19.83;66.35;95706.81;5001507;28;20241;-79
2022/10/14 08:07:13;;;;;;;3.25;1.40;;;;;;;19.73;66.31;95709.22;5001865;28;20199;-78
2022/10/14 08:09:39;;;;;;;2.55;1.50;;;;;;;20.01;64.60;95706.66;5001711;28;20269;-77
2022/10/14 08:12:06;;;;;;;2.55;1.38;;;;;;;20.41;63.37;95693.56;5001961;28;20619;-78
2022/10/14 08:14:32;;;;;;;2.85;1.60;;;;;;;20.45;60.75;95701.72;5000160;28;20246;-79
2022/10/14 08:17:00;;;;;;;1.77;1.10;;;;;;;20.65;60.23;95689.78;5001752;28;20210;-78
2022/10/14 08:19:27;;;;;;;1.75;1.38;;;;;;;20.75;58.89;95694.41;5001625;28;20219;-78
2022/10/14 08:21:53;;;;;;;2.88;1.40;;;;;;;20.75;58.85;95686.56;5001308;28;20238;-79
2022/10/14 08:24:20;;;;;;;2.45;1.25;;;;;;;20.77;57.44;95681.09;5001930;28;20206;-78
2022/10/14 08:26:51;;;;;;;2.13;1.33;;;;;;;20.95;57.87;95691.31;5001544;28;20274;-78
2022/10/14 08:29:18;;;;;;;2.33;1.58;;;;;;;20.90;58.36;95680.75;4999804;28;20218;-78
2022/10/14 08:31:45;;;;;;;6.47;5.43;;;;;;;20.92;59.00;95692.59;5000603;28;20242;-79
2022/10/14 08:34:13;;;;;;;3.38;1.80;;;;;;;20.80;56.79;95691.06;5000388;28;20239;-77
2022/10/14 08:36:39;;;;;;;1.65;1.10;;;;;;;20.66;56.92;95686.16;4997783;28;20458;-78
2022/10/14 08:39:06;;;;;;;1.65;1.30;;;;;;;20.58;56.55;95680.53;5001413;28;20203;-79
2022/10/14 08:41:46;;;;;;;2.10;0.93;;;;;;;20.95;55.47;95691.31;4999871;28;20237;-78
2022/10/14 08:44:21;;;;;;;1.20;1.00;;;;;;;21.26;55.58;95696.00;4991857;28;20203;-78
2022/10/14 08:46:52;;;;;;;1.70;1.00;;;;;;;21.44;53.68;95691.50;5000032;28;20205;-78
2022/10/14 08:49:24;;;;;;;2.97;0.93;;;;;;;21.52;52.09;95681.44;4999783;28;20210;-79
2022/10/14 08:51:55;;;;;;;1.23;1.00;;;;;;;21.58;50.94;95692.75;4998845;28;20231;-77
2022/10/14 08:54:31;;;;;;;1.42;0.93;;;;;;;21.56;52.07;95677.25;4997899;28;20200;-78
2022/10/14 08:56:59;;;;;;;2.85;1.02;;;;;;;21.64;51.92;95679.47;4998892;28;20203;-79
2022/10/14 08:59:26;;;;;;;1.58;0.90;;;;;;;21.68;51.68;95682.41;4998088;28;20219;-79
2022/10/14 09:01:59;;;;;;;1.80;1.10;;;;;;;21.72;50.03;95675.66;4998062;28;20227;-78
2022/10/14 09:04:27;;;;;;;1.13;1.02;;;;;;;21.64;51.27;95681.31;4998773;28;20203;-79
2022/10/14 09:06:54;;;;;;;0.90;0.80;;;;;;;21.61;50.75;95677.34;4998327;28;20195;-78
2022/10/14 09:09:26;;;;;;;1.15;0.85;;;;;;;21.41;49.81;95671.03;4998073;28;20212;-77
2022/10/14 09:11:58;;;;;;;2.10;0.90;;;;;;;20.96;50.57;95670.16;4996853;28;20222;-79
2022/10/14 09:14:28;;;;;;;4.45;1.05;;;;;;;20.75;52.05;95670.84;4997271;28;20222;-78
2022/10/14 09:17:03;;;;;;;0.70;0.70;;;;;;;20.47;50.69;95669.06;4995844;28;20210;-77
2022/10/14 09:19:34;;;;;;;2.42;1.38;;;;;;;20.29;51.84;95677.09;4997979;28;20203;-78
2022/10/14 09:22:01;;;;;;;1.58;0.95;;;;;;;20.18;52.51;95672.72;4997164;28;20250;-78
2022/10/14 09:24:32;;;;;;;2.92;0.80;;;;;;;19.96;52.63;95680.44;4998110;28;20206;-79
2022/10/14 09:27:02;;;;;;;1.15;0.95;;;;;;;19.98;53.60;95673.94;5000363;28;20782;-78
2022/10/14 09:29:32;;;;;;;0.90;0.90;;;;;;;19.96;53.39;95672.59;5000673;28;20203;-77
2022/10/14 09:32:02;;;;;;;0.77;0.77;;;;;;;19.96;53.68;95673.38;5000563;28;20239;-79
2022/10/14 09:34:34;;;;;;;3.05;1.20;;;;;;;20.17;52.88;95668.53;5001660;28;20225;-79
2022/10/14 09:37:17;;;;;;;1.63;1.10;;;;;;;20.25;51.75;95668.94;5001055;28;20200;-79
2022/10/14 09:39:44;;;;;;;1.38;0.90;;;;;;;20.40;51.77;95657.97;4999915;28;20211;-77
2022/10/14 09:42:18;;;;;;;2.05;0.80;;;;;;;20.49;50.09;95659.19;4999187;28;20228;-79
2022/10/14 09:44:44;;;;;;;0.85;0.80;;;;;;;20.31;48.97;95654.94;5000217;28;20207;-78
2022/10/14 09:47:13;;;;;;;0.93;0.60;;;;;;;20.32;50.55;95659.13;4999649;28;20207;-77
2022/10/14 09:49:44;;;;;;;0.90;0.90;;;;;;;20.50;51.24;95658.16;4999535;28;20212;-79
2022/10/14 09:52:22;;;;;;;2.28;0.95;;;;;;;20.55;51.25;95644.38;4998887;28;20226;-79
2022/10/14 09:54:54;;;;;;;1.38;0.80;;;;;;;20.64;50.82;95650.78;4999160;28;20206;-77
2022/10/14 09:57:21;;;;;;;0.95;0.82;;;;;;;20.48;49.21;95647.13;5000509;28;20199;-78
2022/10/14 09:59:52;;;;;;;1.15;0.90;;;;;;;20.38;50.80;95643.56;5002462;28;20214;-78
2022/10/14 10:02:23;;;;;;;0.80;0.80;;;;;;;20.35;51.69;95648.19;5000309;28;20235;-78
2022/10/14 10:04:53;;;;;;;2.00;1.10;;;;;;;20.37;53.63;95647.19;4999645;28;20595;-78
2022/10/14 10:07:28;;;;;;;1.55;0.60;;;;;;;20.32;52.13;95648.66;4999824;28;20207;-78
2022/10/14 10:09:56;;;;;;;1.13;0.80;;;;;;;20.26;52.45;95652.22;4999754;28;20206;-79
2022/10/14 10:12:31;;;;;;;1.95;0.80;;;;;;;20.15;49.58;95639.22;4998330;28;20219;-77
2022/10/14 10:14:59;;;;;;;0.80;0.80;;;;;;;20.01;49.96;95642.09;4998744;28;20207;-78
2022/10/14 10:17:27;;;;;;;0.93;0.88;;;;;;;20.07;50.81;95640.38;4998298;28;20210;-79
2022/10/14 10:20:17;;;;;;;1.65;0.80;;;;;;;20.00;49.88;95643.16;4998143;28;20199;-77
2022/10/14 10:22:44;;;;;;;1.05;0.80;;;;;;;19.79;50.00;95646.41;4981728;28;20216;-77
2022/10/14 10:25:25;;;;;;;6.03;5.50;;;;;;;19.89;50.53;95645.78;4978976;28;20212;-78
2022/10/14 10:27:53;;;;;;;1.30;1.20;;;;;;;19.90;49.00;95635.09;4989396;28;20196;-78
2022/10/14 10:30:23;;;;;;;2.13;1.00;;;;;;;19.94;51.11;95636.22;4997928;28;20211;-78
2022/10/14 10:32:59;;;;;;;0.80;0.80;;;;;;;20.02;51.07;95630.59;4998220;28;20702;-79
2022/10/14 10:35:33;;;;;;;1.20;1.10;;;;;;;20.07;49.17;95624.69;4997544;28;20675;-78
2022/10/14 10:38:08;;;;;;;4.28;0.98;;;;;;;20.09;48.82;95622.63;4998264;28;20290;-79
2022/10/14 10:40:41;;;;;;;0.82;0.80;;;;;;;20.08;50.74;95612.41;4998455;28;20211;-80
2022/10/14 10:43:31;;;;;;;2.05;1.13;;;;;;;20.13;50.83;95612.50;4999076;28;20223;-77
2022/10/14 10:46:12;;;;;;;0.90;0.90;;;;;;;20.16;50.43;95606.81;4999214;28;20204;-78
2022/10/14 10:48:45;;;;;;;1.30;0.93;;;;;;;20.11;51.96;95617.16;4999173;28;20218;-79
2022/10/14 10:51:16;;;;;;;1.52;0.90;;;;;;;19.99;50.48;95602.34;4999301;28;20634;-79
2022/10/14 10:53:49;;;;;;;2.03;1.00;;;;;;;19.99;50.44;95610.19;4998401;28;20200;-78
2022/10/14 10:56:24;;;;;;;2.58;1.23;;;;;;;20.00;51.35;95605.75;4998959;28;20207;-79
2022/10/14 10:59:05;;;;;;;1.02;0.90;;;;;;;20.13;50.85;95605.44;4998590;28;20206;-77
2022/10/14 11:01:43;;;;;;;1.02;0.93;;;;;;;20.22;51.20;95601.41;4998504;28;20269;-78
2022/10/14 11:04:25;;;;;;;1.65;1.08;;;;;;;20.28;51.09;95594.44;4999050;28;20206;-77
2022/10/14 11:12:52;;;;;;;1.67;1.10;;;;;;;19.93;50.87;95594.66;4979791;28;20219;-77
2022/10/14 11:15:28;;;;;;;1.23;1.13;;;;;;;19.90;50.95;95595.09;4977146;28;20219;-78
2022/10/14 11:18:01;;;;;;;2.90;1.00;;;;;;;19.78;50.91;95579.50;4978481;28;20214;-76
2022/10/14 11:20:36;;;;;;;1.50;0.98;;;;;;;19.89;51.34;95577.84;4978014;28;20204;-78
2022/10/14 11:23:20;;;;;;;1.83;0.95;;;;;;;20.00;51.33;95566.56;4995599;28;20230;-79
2022/10/14 11:25:54;;;;;;;2.40;0.82;;;;;;;20.07;51.15;95567.19;4996394;28;20204;-78
2022/10/14 11:28:27;;;;;;;1.10;1.00;;;;;;;20.08;50.58;95565.34;4996022;28;20723;-78
2022/10/14 11:31:03;;;;;;;3.70;1.05;;;;;;;20.08;50.98;95560.13;4995438;28;20203;-80
2022/10/14 11:33:45;;;;;;;1.42;1.10;;;;;;;20.10;51.79;95558.88;4996667;28;20211;-78
2022/10/14 11:36:23;;;;;;;1.15;1.00;;;;;;;20.02;51.80;95546.97;4996740;28;20210;-79
2022/10/14 11:39:03;;;;;;;1.20;1.10;;;;;;;19.96;52.17;95549.75;4996488;28;20215;-79
2022/10/14 11:41:41;;;;;;;1.33;1.20;;;;;;;19.93;51.89;95537.94;4991496;28;20224;-79
2022/10/14 11:44:14;;;;;;;1.42;1.00;;;;;;;19.95;52.14;95532.47;4996551;28;20198;-79
2022/10/14 11:46:46;;;;;;;1.52;0.95;;;;;;;19.94;51.95;95533.50;4997053;28;20206;-79
2022/10/14 11:49:19;;;;;;;1.50;1.08;;;;;;;19.91;52.38;95532.16;4995380;28;20196;-78